createdAt,value
2023-05-21T00:00:02.760Z,4.25
2023-05-21T00:02:05.315Z,7.70
2023-05-21T00:04:08.206Z,7.93
2023-05-21T00:06:10.391Z,6.38
2023-05-21T00:08:12.687Z,7.28
2023-05-21T00:10:14.776Z,5.85
2023-05-21T00:12:16.971Z,5.72
2023-05-21T00:14:19.225Z,4.25
2023-05-21T00:16:21.409Z,6.65
2023-05-21T00:18:25.620Z,5.10
2023-05-21T00:20:29.508Z,7.53
2023-05-21T00:22:33.794Z,4.63
2023-05-21T00:24:36.161Z,7.55
2023-05-21T00:26:38.481Z,5.50
2023-05-21T00:28:40.500Z,5.65
2023-05-21T00:30:43.341Z,3.25
2023-05-21T00:32:45.640Z,4.30
2023-05-21T00:34:48.645Z,8.30
2023-05-21T00:36:50.820Z,4.88
2023-05-21T00:38:52.974Z,4.93
2023-05-21T00:40:55.068Z,4.45
2023-05-21T00:42:57.484Z,5.57
2023-05-21T00:45:00.243Z,10.07
2023-05-21T00:47:02.914Z,6.65
2023-05-21T00:49:05.799Z,5.72
2023-05-21T00:51:08.040Z,6.85
2023-05-21T00:53:11.855Z,6.90
2023-05-21T00:55:14.089Z,4.18
2023-05-21T00:57:20.959Z,8.27
2023-05-21T00:59:24.365Z,4.65
2023-05-21T01:01:26.817Z,9.77
2023-05-21T01:03:31.493Z,7.70
2023-05-21T01:05:33.959Z,8.60
2023-05-21T01:07:39.370Z,5.85
2023-05-21T01:09:43.045Z,7.38
2023-05-21T01:11:48.270Z,5.20
2023-05-21T01:13:51.210Z,10.05
2023-05-21T01:15:54.391Z,7.55
2023-05-21T01:17:57.502Z,8.18
2023-05-21T01:20:02.019Z,6.55
2023-05-21T01:22:08.184Z,11.90
2023-05-21T01:24:10.511Z,5.38
2023-05-21T01:26:17.302Z,5.03
2023-05-21T01:28:19.417Z,8.50
2023-05-21T01:30:23.387Z,6.65
2023-05-21T01:32:44.878Z,8.82
2023-05-21T01:34:56.212Z,7.03
2023-05-21T01:37:17.625Z,5.18
2023-05-21T01:39:26.109Z,9.85
2023-05-21T01:41:33.588Z,8.10
2023-05-21T01:43:40.120Z,13.15
2023-05-21T01:45:45.190Z,7.18
2023-05-21T01:47:50.000Z,8.05
2023-05-21T01:49:52.798Z,9.80
2023-05-21T01:51:55.357Z,6.63
2023-05-21T01:53:57.643Z,4.43
2023-05-21T01:56:03.104Z,6.40
2023-05-21T01:58:05.436Z,6.25
2023-05-21T02:00:09.169Z,8.35
2023-05-21T02:02:11.600Z,9.10
2023-05-21T02:04:13.827Z,6.00
2023-05-21T02:06:16.211Z,9.52
2023-05-21T02:08:20.001Z,5.22
2023-05-21T02:10:22.273Z,7.82
2023-05-21T02:12:24.377Z,9.77
2023-05-21T02:14:26.609Z,12.93
2023-05-21T02:16:28.786Z,6.65
2023-05-21T02:18:30.994Z,12.32
2023-05-21T02:20:33.164Z,7.95
2023-05-21T02:22:35.352Z,9.77
2023-05-21T02:24:37.578Z,7.95
2023-05-21T02:26:39.704Z,8.82
2023-05-21T02:28:41.792Z,8.77
2023-05-21T02:30:43.920Z,12.82
2023-05-21T02:32:49.141Z,14.70
2023-05-21T02:34:51.356Z,13.45
2023-05-21T02:36:53.447Z,7.93
2023-05-21T02:38:58.101Z,10.80
2023-05-21T02:41:00.362Z,9.63
2023-05-21T02:43:02.473Z,8.23
2023-05-21T02:45:05.204Z,7.32
2023-05-21T02:47:08.648Z,6.53
2023-05-21T02:49:10.908Z,9.55
2023-05-21T02:51:13.063Z,7.90
2023-05-21T02:53:15.207Z,11.10
2023-05-21T02:55:17.327Z,11.18
2023-05-21T02:57:19.816Z,9.65
2023-05-21T02:59:21.873Z,18.38
2023-05-21T03:01:23.775Z,13.45
2023-05-21T03:03:25.859Z,15.60
2023-05-21T03:05:28.029Z,11.73
2023-05-21T03:07:29.851Z,14.00
2023-05-21T03:09:31.843Z,9.95
2023-05-21T03:11:33.775Z,11.55
2023-05-21T03:13:35.822Z,9.02
2023-05-21T03:15:39.517Z,10.32
2023-05-21T03:17:42.846Z,16.33
2023-05-21T03:19:45.015Z,13.43
2023-05-21T03:21:47.046Z,11.57
2023-05-21T03:23:49.716Z,10.85
2023-05-21T03:25:51.551Z,14.68
2023-05-21T03:27:53.431Z,9.10
2023-05-21T03:29:56.103Z,13.95
2023-05-21T03:31:58.153Z,13.23
2023-05-21T03:34:00.201Z,10.85
2023-05-21T03:36:02.324Z,11.35
2023-05-21T03:38:04.784Z,13.75
2023-05-21T03:40:07.817Z,8.95
2023-05-21T03:42:09.736Z,16.40
2023-05-21T03:44:11.697Z,12.52
2023-05-21T03:46:13.609Z,16.80
2023-05-21T03:48:20.047Z,11.25
2023-05-21T03:50:21.886Z,8.25
2023-05-21T03:52:23.769Z,9.00
2023-05-21T03:54:25.900Z,11.95
2023-05-21T03:56:27.786Z,12.00
2023-05-21T03:58:30.734Z,14.02
2023-05-21T04:00:34.636Z,9.68
2023-05-21T04:02:36.603Z,12.88
2023-05-21T04:04:38.519Z,9.90
2023-05-21T04:06:42.488Z,11.25
2023-05-21T04:08:44.673Z,12.05
2023-05-21T04:10:46.619Z,13.07
2023-05-21T04:12:52.527Z,16.50
2023-05-21T04:14:54.479Z,10.50
2023-05-21T04:16:56.877Z,14.65
2023-05-21T04:18:58.712Z,10.55
2023-05-21T04:21:01.941Z,13.63
2023-05-21T04:23:03.889Z,9.50
2023-05-21T04:25:06.347Z,13.70
2023-05-21T04:27:10.229Z,7.88
2023-05-21T04:29:12.135Z,14.18
2023-05-21T04:31:14.130Z,13.70
2023-05-21T04:33:18.587Z,11.23
2023-05-21T04:35:20.716Z,12.93
2023-05-21T04:37:24.751Z,13.13
2023-05-21T04:39:26.778Z,10.75
2023-05-21T04:41:28.661Z,13.60
2023-05-21T04:43:32.125Z,11.18
2023-05-21T04:45:34.230Z,15.82
2023-05-21T04:47:36.350Z,14.20
2023-05-21T04:49:38.312Z,10.20
2023-05-21T04:51:40.187Z,12.27
2023-05-21T04:53:42.732Z,18.00
2023-05-21T04:55:44.611Z,11.45
2023-05-21T04:57:46.578Z,15.23
2023-05-21T04:59:49.364Z,12.75
2023-05-21T05:01:51.416Z,13.15
2023-05-21T05:03:53.662Z,11.52
2023-05-21T05:05:55.786Z,14.75
2023-05-21T05:07:58.547Z,13.95
2023-05-21T05:10:00.507Z,7.65
2023-05-21T05:12:02.421Z,8.40
2023-05-21T05:14:04.326Z,16.70
2023-05-21T05:16:07.530Z,10.80
2023-05-21T05:18:09.739Z,19.35
2023-05-21T05:20:12.038Z,12.23
2023-05-21T05:22:13.940Z,13.02
2023-05-21T05:24:16.398Z,13.23
2023-05-21T05:26:18.325Z,14.88
2023-05-21T05:28:20.198Z,12.27
2023-05-21T05:30:22.051Z,13.70
2023-05-21T05:32:23.973Z,6.00
2023-05-21T05:34:26.048Z,11.82
2023-05-21T05:36:27.998Z,14.43
2023-05-21T05:38:29.887Z,10.07
2023-05-21T05:40:31.811Z,11.68
2023-05-21T05:42:33.849Z,14.07
2023-05-21T05:44:35.758Z,10.40
2023-05-21T05:46:37.904Z,14.57
2023-05-21T05:48:40.122Z,11.57
2023-05-21T05:50:41.983Z,17.10
2023-05-21T05:52:43.881Z,10.00
2023-05-21T05:54:46.062Z,9.88
2023-05-21T05:56:48.044Z,9.43
2023-05-21T05:58:49.916Z,12.52
2023-05-21T06:00:52.462Z,10.85
2023-05-21T06:02:54.398Z,11.60
2023-05-21T06:04:56.376Z,10.40
2023-05-21T06:06:58.756Z,7.70
2023-05-21T06:09:01.363Z,12.07
2023-05-21T06:11:07.032Z,10.77
2023-05-21T06:13:08.881Z,13.52
2023-05-21T06:15:11.133Z,12.95
2023-05-21T06:17:13.120Z,13.13
2023-05-21T06:19:15.106Z,10.18
2023-05-21T06:21:17.183Z,10.48
2023-05-21T06:23:19.033Z,8.40
2023-05-21T06:25:21.102Z,11.82
2023-05-21T06:27:22.988Z,16.77
2023-05-21T06:29:24.994Z,10.45
2023-05-21T06:31:26.934Z,11.38
2023-05-21T06:33:29.002Z,10.27
2023-05-21T06:35:30.944Z,9.50
2023-05-21T06:37:32.883Z,10.30
2023-05-21T06:39:34.809Z,15.45
2023-05-21T06:41:36.816Z,14.07
2023-05-21T06:43:38.682Z,10.52
2023-05-21T06:45:40.890Z,11.93
2023-05-21T06:47:43.233Z,13.27
2023-05-21T06:49:45.187Z,8.70
2023-05-21T06:51:47.433Z,11.68
2023-05-21T06:53:49.450Z,8.85
2023-05-21T06:55:54.052Z,9.82
2023-05-21T06:57:58.619Z,13.75
2023-05-21T07:00:00.824Z,8.10
2023-05-21T07:02:04.496Z,11.85
2023-05-21T07:04:06.763Z,11.55
2023-05-21T07:06:08.917Z,8.50
2023-05-21T07:08:12.330Z,7.15
2023-05-21T07:10:14.343Z,13.50
2023-05-21T07:12:16.224Z,7.35
2023-05-21T07:14:18.171Z,11.45
2023-05-21T07:16:20.176Z,7.90
2023-05-21T07:18:28.203Z,8.13
2023-05-21T07:20:30.170Z,11.82
2023-05-21T07:22:32.130Z,9.85
2023-05-21T07:24:34.085Z,11.75
2023-05-21T07:26:36.056Z,9.50
2023-05-21T07:28:38.118Z,8.57
2023-05-21T07:30:40.089Z,6.65
2023-05-21T07:32:42.367Z,10.27
2023-05-21T07:34:44.322Z,8.63
2023-05-21T07:36:46.274Z,7.68
2023-05-21T07:38:48.267Z,8.45
2023-05-21T07:40:50.322Z,5.72
2023-05-21T07:42:52.476Z,15.25
2023-05-21T07:44:54.473Z,6.22
2023-05-21T07:46:56.728Z,6.65
2023-05-21T07:48:58.686Z,6.32
2023-05-21T07:51:01.250Z,9.13
2023-05-21T07:53:03.538Z,5.45
2023-05-21T07:55:06.573Z,4.47
2023-05-21T07:57:08.510Z,8.10
2023-05-21T07:59:11.677Z,6.85
2023-05-21T08:01:15.402Z,6.28
2023-05-21T08:03:19.830Z,8.13
2023-05-21T08:05:23.646Z,7.95
2023-05-21T08:07:25.593Z,8.98
2023-05-21T08:09:27.499Z,7.85
2023-05-21T08:11:29.603Z,6.75
2023-05-21T08:13:31.631Z,4.72
2023-05-21T08:15:33.935Z,10.80
2023-05-21T08:17:35.953Z,5.93
2023-05-21T08:19:38.467Z,5.32
2023-05-21T08:21:40.603Z,5.85
2023-05-21T08:23:42.725Z,6.03
2023-05-21T08:25:44.665Z,6.20
2023-05-21T08:27:46.720Z,4.68
2023-05-21T08:29:48.713Z,4.10
2023-05-21T08:31:50.700Z,4.28
2023-05-21T08:33:54.009Z,3.45
2023-05-21T08:35:55.982Z,5.82
2023-05-21T08:38:03.287Z,3.67
2023-05-21T08:40:06.771Z,5.65
2023-05-21T08:42:25.663Z,8.30
2023-05-21T08:44:42.384Z,5.38
2023-05-21T08:46:46.225Z,8.57
2023-05-21T08:48:48.588Z,5.95
2023-05-21T08:50:54.977Z,3.42
2023-05-21T08:52:59.174Z,5.85
2023-05-21T08:55:03.980Z,6.45
2023-05-21T08:57:06.818Z,2.90
2023-05-21T08:59:08.978Z,4.82
2023-05-21T09:01:12.948Z,3.40
2023-05-21T09:03:16.415Z,3.83
2023-05-21T09:05:18.582Z,6.10
2023-05-21T09:07:20.788Z,3.30
2023-05-21T09:09:32.924Z,4.43
2023-05-21T09:11:34.837Z,3.40
2023-05-21T09:13:39.142Z,9.70
2023-05-21T09:15:42.101Z,4.28
2023-05-21T09:17:47.906Z,5.07
2023-05-21T09:20:08.206Z,3.35
2023-05-21T09:22:10.203Z,5.28
2023-05-21T09:24:14.272Z,5.55
2023-05-21T09:26:16.399Z,2.88
2023-05-21T09:28:23.308Z,3.15
2023-05-21T09:30:27.809Z,5.93
2023-05-21T09:32:32.317Z,4.00
2023-05-21T09:34:37.025Z,6.93
2023-05-21T09:36:45.884Z,3.50
2023-05-21T09:38:53.801Z,4.80
2023-05-21T09:40:57.172Z,8.90
2023-05-21T09:42:59.481Z,3.72
2023-05-21T09:45:02.583Z,6.25
2023-05-21T09:47:04.686Z,4.15
2023-05-21T09:49:06.985Z,6.32
2023-05-21T09:51:11.603Z,5.75
2023-05-21T09:53:14.713Z,5.45
2023-05-21T09:55:17.713Z,3.25
2023-05-21T09:57:29.909Z,4.90
2023-05-21T09:59:39.752Z,8.77
2023-05-21T10:01:41.826Z,5.77
2023-05-21T10:03:50.554Z,3.17
2023-05-21T10:05:55.180Z,7.45
2023-05-21T10:08:03.394Z,5.07
2023-05-21T10:10:10.868Z,4.88
2023-05-21T10:12:19.512Z,8.55
2023-05-21T10:14:26.346Z,6.90
2023-05-21T10:16:30.802Z,7.68
2023-05-21T10:18:33.733Z,5.00
2023-05-21T10:20:38.352Z,5.97
2023-05-21T10:22:42.095Z,4.03
2023-05-21T10:24:45.496Z,6.32
2023-05-21T10:26:48.686Z,6.47
2023-05-21T10:28:52.381Z,7.85
2023-05-21T10:30:54.740Z,6.28
2023-05-21T10:32:58.217Z,6.53
2023-05-21T10:35:02.694Z,6.60
2023-05-21T10:37:08.247Z,4.68
2023-05-21T10:39:13.113Z,4.80
2023-05-21T10:41:17.449Z,7.15
2023-05-21T10:43:39.053Z,7.00
2023-05-21T10:45:50.819Z,4.57
2023-05-21T10:48:13.850Z,5.25
2023-05-21T10:50:19.401Z,6.55
2023-05-21T10:52:37.019Z,5.00
2023-05-21T10:54:50.135Z,4.78
2023-05-21T10:57:08.210Z,5.72
2023-05-21T10:59:18.766Z,7.13
2023-05-21T11:01:21.457Z,4.85
2023-05-21T11:03:24.067Z,8.60
2023-05-21T11:05:45.666Z,5.55
2023-05-21T11:07:53.175Z,5.53
2023-05-21T11:10:24.754Z,7.57
2023-05-21T11:12:27.590Z,7.53
2023-05-21T11:14:38.404Z,7.30
2023-05-21T11:16:47.113Z,4.28
2023-05-21T11:18:49.558Z,8.15
2023-05-21T11:20:52.264Z,8.07
2023-05-21T11:22:54.468Z,6.15
2023-05-21T11:25:01.221Z,6.55
2023-05-21T11:27:05.074Z,6.72
2023-05-21T11:29:10.831Z,5.35
2023-05-21T11:31:23.281Z,6.18
2023-05-21T11:33:25.386Z,5.30
2023-05-21T11:35:28.508Z,9.23
2023-05-21T11:37:33.406Z,4.22
2023-05-21T11:39:40.478Z,5.35
2023-05-21T11:41:54.305Z,5.95
2023-05-21T11:44:03.465Z,9.52
2023-05-21T11:46:06.061Z,9.45
2023-05-21T11:48:14.387Z,4.88
2023-05-21T11:50:17.815Z,6.97
2023-05-21T11:52:20.855Z,5.40
2023-05-21T11:54:23.947Z,7.82
2023-05-21T11:56:26.476Z,7.75
2023-05-21T11:58:31.878Z,8.90
2023-05-21T12:00:40.269Z,5.82
2023-05-21T12:02:52.960Z,5.82
2023-05-21T12:05:00.508Z,7.32
2023-05-21T12:07:08.129Z,7.60
2023-05-21T12:09:11.234Z,4.38
2023-05-21T12:11:13.480Z,4.60
2023-05-21T12:13:15.653Z,4.97
2023-05-21T12:15:18.700Z,5.45
2023-05-21T12:17:22.287Z,4.18
2023-05-21T12:19:24.397Z,6.47
2023-05-21T12:21:29.520Z,4.95
2023-05-21T12:23:31.987Z,7.35
2023-05-21T12:25:34.430Z,6.88
2023-05-21T12:27:37.266Z,8.10
2023-05-21T12:29:42.763Z,8.02
2023-05-21T12:31:49.686Z,7.22
2023-05-21T12:33:52.547Z,4.00
2023-05-21T12:35:54.561Z,9.07
2023-05-21T12:37:56.984Z,7.53
2023-05-21T12:40:01.483Z,6.10
2023-05-21T12:42:03.737Z,7.60
2023-05-21T12:44:09.067Z,5.50
2023-05-21T12:46:17.515Z,9.27
2023-05-21T12:48:19.575Z,5.70
2023-05-21T12:50:22.452Z,5.85
2023-05-21T12:52:25.035Z,6.88
2023-05-21T12:54:38.055Z,5.03
2023-05-21T12:56:47.202Z,3.25
2023-05-21T12:58:50.786Z,4.78
2023-05-21T13:00:56.694Z,6.35
2023-05-21T13:03:00.379Z,5.68
2023-05-21T13:05:05.958Z,5.18
2023-05-21T13:07:07.959Z,6.22
2023-05-21T13:09:10.045Z,5.85
2023-05-21T13:11:12.041Z,7.50
2023-05-21T13:13:13.985Z,6.32
2023-05-21T13:15:16.013Z,5.82
2023-05-21T13:17:19.033Z,5.78
2023-05-21T13:19:21.270Z,6.47
2023-05-21T13:21:23.796Z,4.25
2023-05-21T13:23:25.965Z,7.93
2023-05-21T13:25:29.219Z,5.82
2023-05-21T13:27:31.402Z,4.63
2023-05-21T13:29:33.702Z,5.13
2023-05-21T13:31:35.956Z,5.32
2023-05-21T13:33:38.072Z,5.10
2023-05-21T13:35:40.346Z,2.70
2023-05-21T13:37:42.810Z,4.22
2023-05-21T13:39:44.885Z,5.50
2023-05-21T13:41:47.715Z,5.13
2023-05-21T13:43:49.686Z,2.72
2023-05-21T13:45:52.897Z,7.38
2023-05-21T13:47:55.141Z,6.93
2023-05-21T13:49:57.186Z,5.57
2023-05-21T13:52:01.138Z,5.57
2023-05-21T13:54:03.361Z,7.78
2023-05-21T13:56:06.078Z,4.75
2023-05-21T13:58:08.721Z,4.20
2023-05-21T14:00:14.651Z,3.15
2023-05-21T14:02:17.191Z,5.93
2023-05-21T14:04:20.843Z,6.68
2023-05-21T14:06:22.844Z,7.30
2023-05-21T14:08:27.704Z,4.30
2023-05-21T14:10:29.886Z,4.82
2023-05-21T14:12:31.951Z,6.10
2023-05-21T14:14:34.170Z,6.22
2023-05-21T14:16:36.601Z,4.30
2023-05-21T14:18:38.693Z,5.10
2023-05-21T14:20:40.780Z,4.45
2023-05-21T14:22:43.166Z,6.40
2023-05-21T14:24:45.276Z,2.85
2023-05-21T14:26:47.221Z,5.97
2023-05-21T14:28:49.541Z,7.57
2023-05-21T14:30:51.621Z,4.82
2023-05-21T14:32:54.610Z,5.75
2023-05-21T14:34:59.557Z,4.95
2023-05-21T14:37:01.629Z,4.32
2023-05-21T14:39:04.368Z,4.40
2023-05-21T14:41:07.509Z,4.78
2023-05-21T14:43:10.001Z,3.88
2023-05-21T14:45:19.128Z,3.85
2023-05-21T14:47:22.049Z,3.10
2023-05-21T14:49:24.298Z,4.95
2023-05-21T14:51:26.864Z,5.85
2023-05-21T14:53:28.858Z,4.20
2023-05-21T14:55:31.169Z,4.40
2023-05-21T14:57:33.222Z,4.20
2023-05-21T14:59:35.420Z,5.65
2023-05-21T15:01:37.610Z,7.78
2023-05-21T15:03:39.810Z,4.68
2023-05-21T15:05:42.059Z,6.43
2023-05-21T15:07:44.620Z,4.50
2023-05-21T15:09:46.574Z,4.30
2023-05-21T15:11:52.608Z,6.25
2023-05-21T15:13:55.107Z,4.63
2023-05-21T15:15:57.334Z,4.65
2023-05-21T15:18:00.757Z,4.25
2023-05-21T15:20:04.788Z,6.53
2023-05-21T15:22:06.827Z,4.90
2023-05-21T15:24:09.170Z,3.75
2023-05-21T15:26:11.177Z,9.68
2023-05-21T15:28:13.432Z,3.92
2023-05-21T15:30:15.615Z,2.83
2023-05-21T15:32:18.758Z,5.32
2023-05-21T15:34:20.909Z,4.63
2023-05-21T15:36:23.312Z,4.13
2023-05-21T15:38:25.821Z,4.78
2023-05-21T15:40:27.811Z,3.33
2023-05-21T15:42:31.952Z,3.40
2023-05-21T15:44:34.268Z,3.25
2023-05-21T15:46:36.573Z,4.53
2023-05-21T15:48:38.924Z,3.00
2023-05-21T15:50:41.223Z,2.47
2023-05-21T15:52:43.439Z,3.55
2023-05-21T15:54:46.657Z,5.10
2023-05-21T15:56:50.698Z,5.32
2023-05-21T15:58:53.070Z,3.25
2023-05-21T16:00:55.294Z,4.45
2023-05-21T16:02:57.379Z,3.20
2023-05-21T16:04:59.637Z,4.75
2023-05-21T16:07:02.009Z,3.80
2023-05-21T16:09:04.211Z,4.05
2023-05-21T16:11:06.517Z,4.38
2023-05-21T16:13:08.701Z,3.92
2023-05-21T16:15:11.529Z,4.70
2023-05-21T16:17:13.848Z,4.35
2023-05-21T16:19:16.419Z,4.35
2023-05-21T16:21:18.723Z,7.97
2023-05-21T16:23:20.948Z,5.15
2023-05-21T16:25:23.264Z,5.40
2023-05-21T16:27:26.054Z,5.40
2023-05-21T16:29:28.334Z,8.95
2023-05-21T16:31:30.891Z,6.45
2023-05-21T16:33:33.234Z,7.32
2023-05-21T16:35:35.697Z,4.53
2023-05-21T16:37:38.069Z,3.28
2023-05-21T16:39:40.296Z,2.53
2023-05-21T16:41:43.945Z,5.63
2023-05-21T16:43:46.393Z,3.00
2023-05-21T16:45:49.547Z,4.47
2023-05-21T16:47:52.359Z,3.63
2023-05-21T16:49:56.325Z,5.07
2023-05-21T16:51:58.419Z,2.63
2023-05-21T16:54:00.701Z,3.38
2023-05-21T16:56:03.181Z,2.80
2023-05-21T16:58:07.102Z,8.75
2023-05-21T17:00:10.026Z,5.82
2023-05-21T17:02:13.827Z,4.05
2023-05-21T17:04:16.097Z,3.78
2023-05-21T17:06:18.236Z,4.57
2023-05-21T17:08:20.427Z,2.88
2023-05-21T17:10:24.581Z,4.20
2023-05-21T17:12:26.994Z,4.40
2023-05-21T17:16:34.731Z,5.05
2023-05-21T17:18:37.026Z,3.00
2023-05-21T17:20:39.519Z,5.80
2023-05-21T17:22:41.779Z,4.20
2023-05-21T17:24:43.837Z,3.35
2023-05-21T17:26:46.089Z,4.90
2023-05-21T17:28:48.215Z,4.18
2023-05-21T17:30:51.168Z,5.75
2023-05-21T17:32:53.296Z,5.10
2023-05-21T17:34:55.662Z,5.10
2023-05-21T17:36:59.186Z,5.15
2023-05-21T17:39:01.705Z,5.32
2023-05-21T17:41:04.147Z,6.78
2023-05-21T17:43:07.560Z,7.70
2023-05-21T17:45:10.163Z,5.93
2023-05-21T17:47:12.562Z,6.78
2023-05-21T17:49:14.914Z,4.10
2023-05-21T17:51:17.163Z,4.70
2023-05-21T17:53:19.487Z,3.47
2023-05-21T17:55:21.913Z,4.70
2023-05-21T17:57:24.102Z,5.63
2023-05-21T17:59:26.471Z,5.57
2023-05-21T18:01:28.964Z,6.97
2023-05-21T18:03:31.718Z,5.80
2023-05-21T18:05:35.184Z,6.15
2023-05-21T18:07:38.551Z,6.85
2023-05-21T18:09:40.783Z,6.30
2023-05-21T18:11:44.761Z,3.47
2023-05-21T18:13:46.893Z,5.65
2023-05-21T18:15:49.063Z,7.45
2023-05-21T18:17:51.303Z,4.15
2023-05-21T18:19:53.376Z,5.20
2023-05-21T18:21:55.520Z,4.20
2023-05-21T18:23:57.661Z,5.00
2023-05-21T18:26:00.262Z,7.25
2023-05-21T18:28:02.384Z,6.47
2023-05-21T18:30:06.604Z,6.10
2023-05-21T18:32:09.004Z,6.55
2023-05-21T18:34:11.508Z,5.65
2023-05-21T18:36:13.571Z,8.07
2023-05-21T18:38:15.681Z,4.93
2023-05-21T18:40:18.490Z,4.75
2023-05-21T18:42:21.015Z,4.85
2023-05-21T18:44:23.196Z,4.25
2023-05-21T18:46:25.648Z,6.53
2023-05-21T18:48:27.844Z,7.28
2023-05-21T18:50:30.152Z,3.95
2023-05-21T18:52:32.712Z,5.47
2023-05-21T18:54:34.822Z,3.90
2023-05-21T18:56:37.212Z,4.78
2023-05-21T18:58:39.421Z,6.72
2023-05-21T19:00:43.580Z,4.43
2023-05-21T19:02:46.961Z,5.90
2023-05-21T19:04:49.526Z,6.65
2023-05-21T19:06:51.696Z,7.40
2023-05-21T19:08:54.184Z,3.22
2023-05-21T19:10:56.413Z,7.13
2023-05-21T19:12:58.952Z,6.25
2023-05-21T19:15:01.052Z,5.78
2023-05-21T19:17:03.153Z,8.93
2023-05-21T19:19:06.285Z,5.78
2023-05-21T19:21:08.588Z,4.88
2023-05-21T19:23:11.021Z,4.25
2023-05-21T19:25:13.163Z,6.90
2023-05-21T19:27:15.487Z,5.50
2023-05-21T19:29:17.718Z,6.43
2023-05-21T19:31:20.702Z,5.57
2023-05-21T19:33:22.960Z,4.85
2023-05-21T19:35:25.122Z,5.05
2023-05-21T19:37:27.262Z,5.35
2023-05-21T19:39:40.738Z,5.88
2023-05-21T19:41:43.028Z,7.32
2023-05-21T19:43:46.094Z,8.95
2023-05-21T19:45:48.349Z,4.47
2023-05-21T19:47:50.424Z,5.85
2023-05-21T19:49:52.398Z,5.05
2023-05-21T19:51:55.184Z,4.60
2023-05-21T19:53:57.615Z,4.15
2023-05-21T19:56:00.030Z,4.18
2023-05-21T19:58:02.148Z,4.05
2023-05-21T20:00:05.566Z,5.40
2023-05-21T20:02:10.958Z,10.57
2023-05-21T20:04:13.802Z,4.93
2023-05-21T20:06:19.163Z,6.95
2023-05-21T20:08:21.382Z,12.98
2023-05-21T20:10:23.539Z,5.00
2023-05-21T20:12:25.595Z,4.95
2023-05-21T20:14:28.044Z,9.65
2023-05-21T20:16:30.654Z,6.88
2023-05-21T20:18:32.633Z,5.53
2023-05-21T20:20:37.680Z,2.97
2023-05-21T20:22:40.154Z,2.85
2023-05-21T20:24:42.640Z,4.13
2023-05-21T20:26:45.273Z,5.82
2023-05-21T20:28:47.797Z,6.03
2023-05-21T20:30:54.723Z,4.45
2023-05-21T20:32:57.643Z,7.90
2023-05-21T20:35:03.262Z,5.32
2023-05-21T20:37:06.330Z,7.20
2023-05-21T20:39:09.391Z,5.47
2023-05-21T20:41:12.362Z,2.97
2023-05-21T20:43:15.146Z,8.10
2023-05-21T20:45:17.348Z,6.07
2023-05-21T20:47:20.702Z,4.47
2023-05-21T20:49:25.088Z,4.38
2023-05-21T20:51:27.862Z,3.78
2023-05-21T20:53:29.933Z,6.63
2023-05-21T20:55:35.147Z,5.28
2023-05-21T20:57:37.298Z,6.18
2023-05-21T20:59:39.291Z,3.13
2023-05-21T21:01:41.788Z,6.05
2023-05-21T21:03:46.097Z,2.92
2023-05-21T21:05:48.256Z,4.43
2023-05-21T21:07:51.821Z,7.32
2023-05-21T21:09:55.576Z,3.92
2023-05-21T21:12:06.297Z,5.32
2023-05-21T21:14:11.262Z,4.40
2023-05-21T21:16:13.370Z,4.32
2023-05-21T21:18:16.498Z,2.85
2023-05-21T21:20:19.585Z,4.60
2023-05-21T21:22:21.783Z,5.75
2023-05-21T21:24:23.785Z,4.72
2023-05-21T21:26:27.243Z,4.80
2023-05-21T21:28:29.403Z,4.40
2023-05-21T21:30:31.701Z,6.80
2023-05-21T21:32:36.068Z,5.18
2023-05-21T21:34:38.271Z,3.67
2023-05-21T21:36:40.685Z,4.10
2023-05-21T21:38:42.538Z,5.60
2023-05-21T21:40:44.722Z,3.20
2023-05-21T21:42:46.807Z,4.68
2023-05-21T21:44:48.906Z,10.27
2023-05-21T21:46:50.817Z,4.72
2023-05-21T21:48:53.012Z,3.45
2023-05-21T21:50:55.240Z,3.45
2023-05-21T21:52:57.493Z,4.35
2023-05-21T21:54:59.886Z,6.53
2023-05-21T21:57:02.391Z,2.15
2023-05-21T21:59:04.367Z,3.60
2023-05-21T22:01:06.563Z,4.90
2023-05-21T22:03:08.619Z,6.00
2023-05-21T22:05:10.656Z,4.00
2023-05-21T22:07:18.269Z,3.35
2023-05-21T22:09:22.762Z,2.70
2023-05-21T22:11:24.868Z,5.47
2023-05-21T22:13:29.163Z,7.03
2023-05-21T22:15:32.487Z,5.15
2023-05-21T22:17:35.168Z,5.43
2023-05-21T22:19:37.187Z,5.38
2023-05-21T22:21:39.768Z,7.50
2023-05-21T22:23:41.775Z,5.00
2023-05-21T22:25:43.675Z,6.50
2023-05-21T22:27:45.813Z,4.93
2023-05-21T22:29:47.830Z,4.68
2023-05-21T22:31:49.883Z,6.63
2023-05-21T22:33:51.849Z,3.70
2023-05-21T22:35:54.722Z,7.65
2023-05-21T22:37:56.740Z,4.18
2023-05-21T22:39:58.643Z,6.78
2023-05-21T22:42:00.905Z,5.30
2023-05-21T22:44:02.895Z,6.07
2023-05-21T22:46:04.850Z,2.92
2023-05-21T22:48:07.418Z,7.55
2023-05-21T22:50:10.819Z,2.17
2023-05-21T22:52:14.712Z,2.67
2023-05-21T22:54:17.414Z,4.13
2023-05-21T22:56:19.852Z,4.20
2023-05-21T22:58:21.764Z,4.75
2023-05-21T23:00:24.105Z,4.32
2023-05-21T23:02:26.222Z,3.55
2023-05-21T23:04:43.501Z,4.50
2023-05-21T23:06:46.101Z,2.25
2023-05-21T23:08:47.989Z,4.05
2023-05-21T23:10:49.962Z,5.25
2023-05-21T23:12:52.455Z,6.10
2023-05-21T23:14:54.669Z,5.25
2023-05-21T23:17:02.156Z,4.03
2023-05-21T23:19:04.470Z,4.93
2023-05-21T23:21:06.786Z,4.18
2023-05-21T23:23:09.547Z,4.93
2023-05-21T23:25:11.413Z,8.23
2023-05-21T23:27:13.449Z,3.47
2023-05-21T23:29:15.325Z,5.38
2023-05-21T23:31:18.066Z,4.60
2023-05-21T23:33:20.020Z,5.13
2023-05-21T23:35:22.088Z,8.75
2023-05-21T23:37:23.943Z,3.15
2023-05-21T23:39:27.182Z,4.05
2023-05-21T23:41:29.209Z,5.93
2023-05-21T23:43:31.094Z,3.88
2023-05-21T23:45:33.185Z,7.43
2023-05-21T23:47:35.182Z,5.88
2023-05-21T23:49:37.158Z,4.15
2023-05-21T23:51:39.699Z,4.28
2023-05-21T23:53:41.552Z,5.32
2023-05-21T23:55:44.440Z,6.63
2023-05-21T23:57:46.305Z,4.40
2023-05-21T23:59:48.352Z,4.93
